VRMG

Gan International Airport

Gan, Maldives
TAF VRMG 192300Z 2000/2106 15005KT 9999 FEW018TCU TEMPO 2000/2006 5000 -SHRA FEW018CB
Issued Valid From Valid To
Oct-19 @ 23:00 UTC
(3 hours ago)
Oct-20 @ 00:00 UTC
(2 hours ago)
Oct-21 @ 06:00 UTC
(-1 days ago)
Oct-20 @ 00:00 to Oct-21 @ 06:00
TAF VRMG 192300Z 2000/2106 15005KT 9999 FEW018TCU
Wind Visibility Clouds
150° at 5 knots 10,000+ meters
  • Few at 1,800' AGL
Temporary Oct-20 @ 00:00 to Oct-20 @ 06:00
TEMPO 2000/2006 5000 -SHRA FEW018CB
Visibility Clouds Conditions
5,005 meters
  • Few at 1,800' AGL
  • Light Rain
TAF VRMG 192300Z 2000/2106 15005KT 9999 FEW018TCU TEMPO 2000/2006 5000 -SHRA FEW018CB
Issued Oct-19 @ 23:00 UTC
(3 hours ago)
Valid From Oct-20 @ 00:00 UTC
(2 hours ago)
Valid To Oct-21 @ 06:00 UTC
(-1 days ago)
Oct-20 @ 00:00 - Oct-21 @ 06:00
Wind Visibility
150° at 5 knots 10,000+ meters
Clouds
  • Few at 1,800' AGL
Temporary Oct-20 @ 00:00 - Oct-20 @ 06:00
Clouds
  • Few at 1,800' AGL
Conditions
  • Light Rain